sensor_id;sensor_type;location;lat;lon;timestamp;P1;durP1;ratioP1;P2;durP2;ratioP2
10166;SDS011;62970;53.130;8.244;2022-12-04T00:01:40;36.43;;;24.10;;
10166;SDS011;62970;53.130;8.244;2022-12-04T00:04:09;32.57;;;23.27;;
10166;SDS011;62970;53.130;8.244;2022-12-04T00:06:38;35.40;;;24.83;;
10166;SDS011;62970;53.130;8.244;2022-12-04T00:09:08;34.47;;;23.47;;
10166;SDS011;62970;53.130;8.244;2022-12-04T00:11:37;33.73;;;23.67;;
10166;SDS011;62970;53.130;8.244;2022-12-04T00:14:09;35.23;;;23.27;;
10166;SDS011;62970;53.130;8.244;2022-12-04T00:16:39;36.13;;;23.33;;
10166;SDS011;62970;53.130;8.244;2022-12-04T00:19:09;34.90;;;23.90;;
10166;SDS011;62970;53.130;8.244;2022-12-04T00:21:38;34.93;;;23.40;;
10166;SDS011;62970;53.130;8.244;2022-12-04T00:24:09;36.03;;;23.30;;
10166;SDS011;62970;53.130;8.244;2022-12-04T00:26:41;36.90;;;23.93;;
10166;SDS011;62970;53.130;8.244;2022-12-04T00:29:11;35.47;;;24.43;;
10166;SDS011;62970;53.130;8.244;2022-12-04T00:31:40;34.87;;;23.60;;
10166;SDS011;62970;53.130;8.244;2022-12-04T00:34:09;35.00;;;23.57;;
10166;SDS011;62970;53.130;8.244;2022-12-04T00:36:39;34.60;;;23.27;;
10166;SDS011;62970;53.130;8.244;2022-12-04T00:39:09;35.53;;;23.40;;
10166;SDS011;62970;53.130;8.244;2022-12-04T00:41:41;37.57;;;23.73;;
10166;SDS011;62970;53.130;8.244;2022-12-04T00:44:10;34.20;;;24.00;;
10166;SDS011;62970;53.130;8.244;2022-12-04T00:46:40;35.30;;;24.60;;
10166;SDS011;62970;53.130;8.244;2022-12-04T00:49:09;33.57;;;23.93;;
10166;SDS011;62970;53.130;8.244;2022-12-04T00:51:39;36.93;;;24.67;;
10166;SDS011;62970;53.130;8.244;2022-12-04T00:54:08;37.70;;;26.70;;
10166;SDS011;62970;53.130;8.244;2022-12-04T00:56:37;39.43;;;27.03;;
10166;SDS011;62970;53.130;8.244;2022-12-04T00:59:10;36.17;;;25.20;;
10166;SDS011;62970;53.130;8.244;2022-12-04T01:01:39;34.03;;;23.80;;
10166;SDS011;62970;53.130;8.244;2022-12-04T01:04:09;34.80;;;23.77;;
10166;SDS011;62970;53.130;8.244;2022-12-04T01:06:38;34.27;;;24.57;;
10166;SDS011;62970;53.130;8.244;2022-12-04T01:09:07;34.43;;;23.97;;
10166;SDS011;62970;53.130;8.244;2022-12-04T01:11:36;36.53;;;24.40;;
10166;SDS011;62970;53.130;8.244;2022-12-04T01:14:08;36.57;;;25.17;;
10166;SDS011;62970;53.130;8.244;2022-12-04T01:16:38;33.67;;;23.57;;
10166;SDS011;62970;53.130;8.244;2022-12-04T01:19:08;35.30;;;24.07;;
10166;SDS011;62970;53.130;8.244;2022-12-04T01:21:39;35.30;;;24.77;;
10166;SDS011;62970;53.130;8.244;2022-12-04T01:24:09;37.00;;;26.50;;
10166;SDS011;62970;53.130;8.244;2022-12-04T01:26:38;39.17;;;26.00;;
10166;SDS011;62970;53.130;8.244;2022-12-04T01:29:11;36.07;;;24.07;;
10166;SDS011;62970;53.130;8.244;2022-12-04T01:31:40;37.67;;;25.87;;
10166;SDS011;62970;53.130;8.244;2022-12-04T01:34:09;36.83;;;25.03;;
10166;SDS011;62970;53.130;8.244;2022-12-04T01:36:39;35.37;;;23.70;;
10166;SDS011;62970;53.130;8.244;2022-12-04T01:39:08;33.37;;;23.63;;
10166;SDS011;62970;53.130;8.244;2022-12-04T01:41:37;38.37;;;26.43;;
10166;SDS011;62970;53.130;8.244;2022-12-04T01:44:19;37.43;;;25.10;;
10166;SDS011;62970;53.130;8.244;2022-12-04T01:46:51;36.90;;;24.47;;
10166;SDS011;62970;53.130;8.244;2022-12-04T01:49:24;35.67;;;24.07;;
10166;SDS011;62970;53.130;8.244;2022-12-04T01:52:01;35.03;;;24.10;;
10166;SDS011;62970;53.130;8.244;2022-12-04T01:54:38;39.40;;;24.73;;
10166;SDS011;62970;53.130;8.244;2022-12-04T01:57:12;37.50;;;25.23;;
10166;SDS011;62970;53.130;8.244;2022-12-04T01:59:47;35.63;;;24.60;;
10166;SDS011;62970;53.130;8.244;2022-12-04T02:02:23;36.60;;;24.37;;
10166;SDS011;62970;53.130;8.244;2022-12-04T02:04:55;35.53;;;24.90;;
10166;SDS011;62970;53.130;8.244;2022-12-04T02:07:24;36.30;;;24.83;;
10166;SDS011;62970;53.130;8.244;2022-12-04T02:09:54;36.90;;;24.53;;
10166;SDS011;62970;53.130;8.244;2022-12-04T02:12:30;37.93;;;24.47;;
10166;SDS011;62970;53.130;8.244;2022-12-04T02:15:09;34.97;;;23.73;;
10166;SDS011;62970;53.130;8.244;2022-12-04T02:17:50;34.90;;;23.30;;
10166;SDS011;62970;53.130;8.244;2022-12-04T02:20:27;38.50;;;26.20;;
10166;SDS011;62970;53.130;8.244;2022-12-04T02:26:18;36.10;;;23.90;;
10166;SDS011;62970;53.130;8.244;2022-12-04T02:29:11;38.30;;;24.53;;
10166;SDS011;62970;53.130;8.244;2022-12-04T02:31:54;40.50;;;25.67;;
10166;SDS011;62970;53.130;8.244;2022-12-04T02:34:32;35.80;;;24.30;;
10166;SDS011;62970;53.130;8.244;2022-12-04T02:37:11;35.37;;;24.20;;
10166;SDS011;62970;53.130;8.244;2022-12-04T02:39:58;35.90;;;24.53;;
10166;SDS011;62970;53.130;8.244;2022-12-04T02:42:38;37.83;;;25.30;;
10166;SDS011;62970;53.130;8.244;2022-12-04T02:45:13;40.63;;;27.20;;
10166;SDS011;62970;53.130;8.244;2022-12-04T02:47:47;37.67;;;26.10;;
10166;SDS011;62970;53.130;8.244;2022-12-04T02:50:18;35.80;;;24.53;;
10166;SDS011;62970;53.130;8.244;2022-12-04T02:52:52;36.43;;;24.67;;
10166;SDS011;62970;53.130;8.244;2022-12-04T02:55:27;40.37;;;25.60;;
10166;SDS011;62970;53.130;8.244;2022-12-04T02:58:03;37.97;;;24.13;;
10166;SDS011;62970;53.130;8.244;2022-12-04T03:00:44;35.87;;;23.33;;
10166;SDS011;62970;53.130;8.244;2022-12-04T03:03:18;33.60;;;22.70;;
10166;SDS011;62970;53.130;8.244;2022-12-04T03:05:53;36.53;;;24.60;;
10166;SDS011;62970;53.130;8.244;2022-12-04T03:08:30;32.97;;;23.33;;
10166;SDS011;62970;53.130;8.244;2022-12-04T03:11:04;37.43;;;24.67;;
10166;SDS011;62970;53.130;8.244;2022-12-04T03:13:34;35.70;;;23.80;;
10166;SDS011;62970;53.130;8.244;2022-12-04T03:16:11;35.53;;;23.77;;
10166;SDS011;62970;53.130;8.244;2022-12-04T03:18:47;40.43;;;26.37;;
10166;SDS011;62970;53.130;8.244;2022-12-04T03:21:23;40.00;;;25.83;;
10166;SDS011;62970;53.130;8.244;2022-12-04T03:24:01;40.00;;;25.23;;
10166;SDS011;62970;53.130;8.244;2022-12-04T03:26:41;34.37;;;23.33;;
10166;SDS011;62970;53.130;8.244;2022-12-04T03:29:14;34.23;;;23.60;;
10166;SDS011;62970;53.130;8.244;2022-12-04T03:31:52;36.73;;;25.00;;
10166;SDS011;62970;53.130;8.244;2022-12-04T03:34:31;37.13;;;25.13;;
10166;SDS011;62970;53.130;8.244;2022-12-04T03:37:06;36.03;;;24.50;;
10166;SDS011;62970;53.130;8.244;2022-12-04T03:39:44;36.00;;;24.33;;
10166;SDS011;62970;53.130;8.244;2022-12-04T03:42:24;37.93;;;26.23;;
10166;SDS011;62970;53.130;8.244;2022-12-04T03:44:57;40.47;;;26.67;;
10166;SDS011;62970;53.130;8.244;2022-12-04T03:47:35;39.47;;;25.67;;
10166;SDS011;62970;53.130;8.244;2022-12-04T03:50:11;38.73;;;25.87;;
10166;SDS011;62970;53.130;8.244;2022-12-04T03:52:47;38.03;;;25.43;;
10166;SDS011;62970;53.130;8.244;2022-12-04T03:55:28;38.30;;;25.50;;
10166;SDS011;62970;53.130;8.244;2022-12-04T03:58:03;40.83;;;26.67;;
10166;SDS011;62970;53.130;8.244;2022-12-04T04:00:38;40.27;;;26.93;;
10166;SDS011;62970;53.130;8.244;2022-12-04T04:03:14;38.80;;;26.50;;
10166;SDS011;62970;53.130;8.244;2022-12-04T04:05:48;38.57;;;26.67;;
10166;SDS011;62970;53.130;8.244;2022-12-04T04:08:22;38.73;;;25.47;;
10166;SDS011;62970;53.130;8.244;2022-12-04T04:10:59;39.97;;;25.53;;
10166;SDS011;62970;53.130;8.244;2022-12-04T04:13:39;38.27;;;24.87;;
10166;SDS011;62970;53.130;8.244;2022-12-04T04:16:43;39.80;;;26.30;;
10166;SDS011;62970;53.130;8.244;2022-12-04T04:19:31;37.73;;;25.17;;
10166;SDS011;62970;53.130;8.244;2022-12-04T04:22:30;40.10;;;26.50;;
10166;SDS011;62970;53.130;8.244;2022-12-04T04:25:13;38.87;;;25.67;;
10166;SDS011;62970;53.130;8.244;2022-12-04T04:27:50;39.60;;;26.60;;
10166;SDS011;62970;53.130;8.244;2022-12-04T04:30:20;34.23;;;22.83;;
10166;SDS011;62970;53.130;8.244;2022-12-04T04:32:51;38.37;;;25.57;;
10166;SDS011;62970;53.130;8.244;2022-12-04T04:35:31;40.37;;;27.07;;
10166;SDS011;62970;53.130;8.244;2022-12-04T04:38:13;38.77;;;25.33;;
10166;SDS011;62970;53.130;8.244;2022-12-04T04:40:50;35.47;;;24.33;;
10166;SDS011;62970;53.130;8.244;2022-12-04T04:43:27;37.27;;;25.40;;
10166;SDS011;62970;53.130;8.244;2022-12-04T04:46:04;36.03;;;25.63;;
10166;SDS011;62970;53.130;8.244;2022-12-04T04:48:39;35.10;;;23.97;;
10166;SDS011;62970;53.130;8.244;2022-12-04T04:51:16;36.63;;;24.37;;
10166;SDS011;62970;53.130;8.244;2022-12-04T04:53:46;36.43;;;24.10;;
10166;SDS011;62970;53.130;8.244;2022-12-04T04:56:24;36.63;;;23.73;;
10166;SDS011;62970;53.130;8.244;2022-12-04T04:58:53;35.67;;;25.03;;
10166;SDS011;62970;53.130;8.244;2022-12-04T05:01:23;35.77;;;24.23;;
10166;SDS011;62970;53.130;8.244;2022-12-04T05:03:55;39.67;;;24.53;;
10166;SDS011;62970;53.130;8.244;2022-12-04T05:06:29;38.73;;;26.30;;
10166;SDS011;62970;53.130;8.244;2022-12-04T05:08:58;39.63;;;25.93;;
10166;SDS011;62970;53.130;8.244;2022-12-04T05:11:27;41.60;;;27.00;;
10166;SDS011;62970;53.130;8.244;2022-12-04T05:13:58;36.17;;;24.53;;
10166;SDS011;62970;53.130;8.244;2022-12-04T05:16:27;34.50;;;24.33;;
10166;SDS011;62970;53.130;8.244;2022-12-04T05:18:57;34.60;;;23.70;;
10166;SDS011;62970;53.130;8.244;2022-12-04T05:21:42;36.07;;;24.70;;
10166;SDS011;62970;53.130;8.244;2022-12-04T05:24:11;34.97;;;23.23;;
10166;SDS011;62970;53.130;8.244;2022-12-04T05:26:41;34.80;;;23.77;;
10166;SDS011;62970;53.130;8.244;2022-12-04T05:29:10;33.13;;;23.00;;
10166;SDS011;62970;53.130;8.244;2022-12-04T05:31:42;35.10;;;24.20;;
10166;SDS011;62970;53.130;8.244;2022-12-04T05:34:11;34.97;;;22.80;;
10166;SDS011;62970;53.130;8.244;2022-12-04T05:36:43;36.83;;;24.07;;
10166;SDS011;62970;53.130;8.244;2022-12-04T05:39:12;33.73;;;23.67;;
10166;SDS011;62970;53.130;8.244;2022-12-04T05:41:42;37.87;;;24.80;;
10166;SDS011;62970;53.130;8.244;2022-12-04T05:44:11;35.30;;;23.63;;
10166;SDS011;62970;53.130;8.244;2022-12-04T05:46:40;33.37;;;23.70;;
10166;SDS011;62970;53.130;8.244;2022-12-04T05:49:10;33.27;;;23.07;;
10166;SDS011;62970;53.130;8.244;2022-12-04T05:51:40;33.77;;;24.13;;
10166;SDS011;62970;53.130;8.244;2022-12-04T05:54:12;30.17;;;21.77;;
10166;SDS011;62970;53.130;8.244;2022-12-04T05:56:41;31.03;;;21.83;;
10166;SDS011;62970;53.130;8.244;2022-12-04T05:59:10;31.50;;;21.20;;
10166;SDS011;62970;53.130;8.244;2022-12-04T06:01:41;31.50;;;22.43;;
10166;SDS011;62970;53.130;8.244;2022-12-04T06:04:10;33.17;;;21.83;;
10166;SDS011;62970;53.130;8.244;2022-12-04T06:06:40;30.73;;;22.07;;
10166;SDS011;62970;53.130;8.244;2022-12-04T06:09:12;33.43;;;23.03;;
10166;SDS011;62970;53.130;8.244;2022-12-04T06:11:42;30.77;;;22.47;;
10166;SDS011;62970;53.130;8.244;2022-12-04T06:14:13;32.03;;;22.17;;
10166;SDS011;62970;53.130;8.244;2022-12-04T06:16:46;29.53;;;21.13;;
10166;SDS011;62970;53.130;8.244;2022-12-04T06:19:17;31.23;;;21.67;;
10166;SDS011;62970;53.130;8.244;2022-12-04T06:21:51;30.97;;;20.33;;
10166;SDS011;62970;53.130;8.244;2022-12-04T06:24:22;29.23;;;20.47;;
10166;SDS011;62970;53.130;8.244;2022-12-04T06:26:55;29.27;;;21.30;;
10166;SDS011;62970;53.130;8.244;2022-12-04T06:29:26;33.17;;;22.50;;
10166;SDS011;62970;53.130;8.244;2022-12-04T06:31:55;32.73;;;22.43;;
10166;SDS011;62970;53.130;8.244;2022-12-04T06:34:28;30.40;;;20.53;;
10166;SDS011;62970;53.130;8.244;2022-12-04T06:37:00;32.13;;;21.60;;
10166;SDS011;62970;53.130;8.244;2022-12-04T06:39:29;28.50;;;20.87;;
10166;SDS011;62970;53.130;8.244;2022-12-04T06:41:59;32.60;;;21.70;;
10166;SDS011;62970;53.130;8.244;2022-12-04T06:44:29;28.10;;;20.23;;
10166;SDS011;62970;53.130;8.244;2022-12-04T06:46:58;32.00;;;21.50;;
10166;SDS011;62970;53.130;8.244;2022-12-04T06:49:31;28.73;;;20.03;;
10166;SDS011;62970;53.130;8.244;2022-12-04T06:52:03;31.67;;;22.20;;
10166;SDS011;62970;53.130;8.244;2022-12-04T06:54:33;30.80;;;21.57;;
10166;SDS011;62970;53.130;8.244;2022-12-04T06:57:02;30.00;;;21.80;;
10166;SDS011;62970;53.130;8.244;2022-12-04T06:59:32;33.67;;;23.97;;
10166;SDS011;62970;53.130;8.244;2022-12-04T07:02:01;29.97;;;21.83;;
10166;SDS011;62970;53.130;8.244;2022-12-04T07:04:31;32.60;;;21.70;;
10166;SDS011;62970;53.130;8.244;2022-12-04T07:07:03;31.33;;;21.40;;
10166;SDS011;62970;53.130;8.244;2022-12-04T07:09:32;31.43;;;22.60;;
10166;SDS011;62970;53.130;8.244;2022-12-04T07:12:01;30.50;;;20.60;;
10166;SDS011;62970;53.130;8.244;2022-12-04T07:14:31;29.10;;;20.63;;
10166;SDS011;62970;53.130;8.244;2022-12-04T07:17:00;27.83;;;19.83;;
10166;SDS011;62970;53.130;8.244;2022-12-04T07:19:29;28.13;;;19.90;;
10166;SDS011;62970;53.130;8.244;2022-12-04T07:21:59;26.10;;;19.53;;
10166;SDS011;62970;53.130;8.244;2022-12-04T07:24:31;28.53;;;20.77;;
10166;SDS011;62970;53.130;8.244;2022-12-04T07:27:00;29.47;;;20.20;;
10166;SDS011;62970;53.130;8.244;2022-12-04T07:29:29;29.33;;;20.40;;
10166;SDS011;62970;53.130;8.244;2022-12-04T07:31:59;33.30;;;23.03;;
10166;SDS011;62970;53.130;8.244;2022-12-04T07:34:30;31.20;;;21.80;;
10166;SDS011;62970;53.130;8.244;2022-12-04T07:36:59;31.17;;;20.80;;
10166;SDS011;62970;53.130;8.244;2022-12-04T07:39:32;28.97;;;20.40;;
10166;SDS011;62970;53.130;8.244;2022-12-04T07:42:01;31.43;;;21.47;;
10166;SDS011;62970;53.130;8.244;2022-12-04T07:44:30;32.50;;;21.67;;
10166;SDS011;62970;53.130;8.244;2022-12-04T07:47:01;31.47;;;21.93;;
10166;SDS011;62970;53.130;8.244;2022-12-04T07:49:31;34.57;;;23.97;;
10166;SDS011;62970;53.130;8.244;2022-12-04T07:52:00;31.73;;;22.47;;
10166;SDS011;62970;53.130;8.244;2022-12-04T07:54:32;31.60;;;22.17;;
10166;SDS011;62970;53.130;8.244;2022-12-04T07:57:04;33.47;;;22.30;;
10166;SDS011;62970;53.130;8.244;2022-12-04T07:59:33;30.73;;;21.50;;
10166;SDS011;62970;53.130;8.244;2022-12-04T08:02:04;29.17;;;21.13;;
10166;SDS011;62970;53.130;8.244;2022-12-04T08:04:35;30.27;;;20.87;;
10166;SDS011;62970;53.130;8.244;2022-12-04T08:07:05;30.13;;;20.83;;
10166;SDS011;62970;53.130;8.244;2022-12-04T08:09:37;31.57;;;21.67;;
10166;SDS011;62970;53.130;8.244;2022-12-04T08:12:07;30.80;;;21.93;;
10166;SDS011;62970;53.130;8.244;2022-12-04T08:14:37;32.10;;;23.10;;
10166;SDS011;62970;53.130;8.244;2022-12-04T08:17:06;30.17;;;21.60;;
10166;SDS011;62970;53.130;8.244;2022-12-04T08:19:38;34.40;;;23.03;;
10166;SDS011;62970;53.130;8.244;2022-12-04T08:22:07;31.17;;;20.77;;
10166;SDS011;62970;53.130;8.244;2022-12-04T08:24:39;31.13;;;21.63;;
10166;SDS011;62970;53.130;8.244;2022-12-04T08:27:08;28.17;;;19.53;;
10166;SDS011;62970;53.130;8.244;2022-12-04T08:29:37;27.03;;;20.33;;
10166;SDS011;62970;53.130;8.244;2022-12-04T08:32:07;27.93;;;19.20;;
10166;SDS011;62970;53.130;8.244;2022-12-04T08:34:36;28.30;;;20.27;;
10166;SDS011;62970;53.130;8.244;2022-12-04T08:37:05;29.83;;;20.73;;
10166;SDS011;62970;53.130;8.244;2022-12-04T08:39:34;28.00;;;20.23;;
10166;SDS011;62970;53.130;8.244;2022-12-04T08:42:06;27.53;;;20.30;;
10166;SDS011;62970;53.130;8.244;2022-12-04T08:44:35;29.50;;;20.50;;
10166;SDS011;62970;53.130;8.244;2022-12-04T08:47:06;30.50;;;21.40;;
10166;SDS011;62970;53.130;8.244;2022-12-04T08:49:36;24.80;;;18.67;;
10166;SDS011;62970;53.130;8.244;2022-12-04T08:52:05;28.40;;;19.80;;
10166;SDS011;62970;53.130;8.244;2022-12-04T08:54:36;28.10;;;19.53;;
10166;SDS011;62970;53.130;8.244;2022-12-04T08:57:08;24.33;;;18.43;;
10166;SDS011;62970;53.130;8.244;2022-12-04T08:59:37;28.03;;;20.10;;
10166;SDS011;62970;53.130;8.244;2022-12-04T09:02:07;30.10;;;20.30;;
10166;SDS011;62970;53.130;8.244;2022-12-04T09:04:38;27.20;;;19.97;;
10166;SDS011;62970;53.130;8.244;2022-12-04T09:07:07;30.00;;;21.03;;
10166;SDS011;62970;53.130;8.244;2022-12-04T09:09:37;29.53;;;20.37;;
10166;SDS011;62970;53.130;8.244;2022-12-04T09:12:10;28.13;;;19.20;;
10166;SDS011;62970;53.130;8.244;2022-12-04T09:14:39;25.90;;;19.13;;
10166;SDS011;62970;53.130;8.244;2022-12-04T09:17:08;28.33;;;19.63;;
10166;SDS011;62970;53.130;8.244;2022-12-04T09:19:38;27.43;;;19.20;;
10166;SDS011;62970;53.130;8.244;2022-12-04T09:22:07;26.93;;;18.70;;
10166;SDS011;62970;53.130;8.244;2022-12-04T09:24:37;26.57;;;18.30;;
10166;SDS011;62970;53.130;8.244;2022-12-04T09:27:06;27.67;;;19.53;;
10166;SDS011;62970;53.130;8.244;2022-12-04T09:29:37;25.83;;;18.57;;
10166;SDS011;62970;53.130;8.244;2022-12-04T09:32:07;29.30;;;19.77;;
10166;SDS011;62970;53.130;8.244;2022-12-04T09:34:37;29.03;;;20.73;;
10166;SDS011;62970;53.130;8.244;2022-12-04T09:37:06;27.43;;;19.37;;
10166;SDS011;62970;53.130;8.244;2022-12-04T09:39:35;26.47;;;18.73;;
10166;SDS011;62970;53.130;8.244;2022-12-04T09:42:10;26.93;;;19.70;;
10166;SDS011;62970;53.130;8.244;2022-12-04T09:45:06;26.90;;;18.80;;
10166;SDS011;62970;53.130;8.244;2022-12-04T09:47:42;28.80;;;20.33;;
10166;SDS011;62970;53.130;8.244;2022-12-04T09:50:15;24.20;;;17.60;;
10166;SDS011;62970;53.130;8.244;2022-12-04T09:52:49;27.03;;;18.90;;
10166;SDS011;62970;53.130;8.244;2022-12-04T09:55:25;26.83;;;19.63;;
10166;SDS011;62970;53.130;8.244;2022-12-04T09:58:02;27.17;;;19.53;;
10166;SDS011;62970;53.130;8.244;2022-12-04T10:00:34;27.60;;;19.33;;
10166;SDS011;62970;53.130;8.244;2022-12-04T10:03:12;29.03;;;20.03;;
10166;SDS011;62970;53.130;8.244;2022-12-04T10:05:47;25.97;;;19.00;;
10166;SDS011;62970;53.130;8.244;2022-12-04T10:08:25;28.40;;;19.53;;
10166;SDS011;62970;53.130;8.244;2022-12-04T10:11:01;28.07;;;20.73;;
10166;SDS011;62970;53.130;8.244;2022-12-04T10:13:46;26.27;;;18.53;;
10166;SDS011;62970;53.130;8.244;2022-12-04T10:16:49;27.47;;;19.10;;
10166;SDS011;62970;53.130;8.244;2022-12-04T10:19:44;26.17;;;19.20;;
10166;SDS011;62970;53.130;8.244;2022-12-04T10:22:24;27.80;;;19.00;;
10166;SDS011;62970;53.130;8.244;2022-12-04T10:25:02;29.43;;;20.63;;
10166;SDS011;62970;53.130;8.244;2022-12-04T10:27:39;28.97;;;19.97;;
10166;SDS011;62970;53.130;8.244;2022-12-04T10:30:19;27.37;;;19.63;;
10166;SDS011;62970;53.130;8.244;2022-12-04T10:32:52;25.77;;;18.50;;
10166;SDS011;62970;53.130;8.244;2022-12-04T10:35:26;28.07;;;19.63;;
10166;SDS011;62970;53.130;8.244;2022-12-04T10:37:58;27.30;;;19.50;;
10166;SDS011;62970;53.130;8.244;2022-12-04T10:40:34;30.07;;;20.80;;
10166;SDS011;62970;53.130;8.244;2022-12-04T10:43:13;26.43;;;19.77;;
10166;SDS011;62970;53.130;8.244;2022-12-04T10:45:53;28.00;;;20.13;;
10166;SDS011;62970;53.130;8.244;2022-12-04T10:48:23;27.57;;;19.77;;
10166;SDS011;62970;53.130;8.244;2022-12-04T10:50:58;27.40;;;19.00;;
10166;SDS011;62970;53.130;8.244;2022-12-04T10:53:28;26.23;;;19.73;;
10166;SDS011;62970;53.130;8.244;2022-12-04T10:56:09;26.83;;;20.10;;
10166;SDS011;62970;53.130;8.244;2022-12-04T10:58:42;26.70;;;19.17;;
10166;SDS011;62970;53.130;8.244;2022-12-04T11:01:24;26.70;;;19.07;;
10166;SDS011;62970;53.130;8.244;2022-12-04T11:03:58;24.83;;;18.47;;
10166;SDS011;62970;53.130;8.244;2022-12-04T11:06:32;26.43;;;19.00;;
10166;SDS011;62970;53.130;8.244;2022-12-04T11:09:02;27.83;;;20.67;;
10166;SDS011;62970;53.130;8.244;2022-12-04T11:11:35;27.43;;;20.13;;
10166;SDS011;62970;53.130;8.244;2022-12-04T11:14:05;26.43;;;18.47;;
10166;SDS011;62970;53.130;8.244;2022-12-04T11:16:45;28.23;;;19.70;;
10166;SDS011;62970;53.130;8.244;2022-12-04T11:19:20;27.40;;;19.30;;
10166;SDS011;62970;53.130;8.244;2022-12-04T11:21:54;26.73;;;19.93;;
10166;SDS011;62970;53.130;8.244;2022-12-04T11:24:28;28.23;;;19.27;;
10166;SDS011;62970;53.130;8.244;2022-12-04T11:27:02;27.30;;;21.13;;
10166;SDS011;62970;53.130;8.244;2022-12-04T11:29:37;29.40;;;20.37;;
10166;SDS011;62970;53.130;8.244;2022-12-04T11:32:16;28.27;;;19.57;;
10166;SDS011;62970;53.130;8.244;2022-12-04T11:34:50;27.90;;;20.13;;
10166;SDS011;62970;53.130;8.244;2022-12-04T11:37:25;28.60;;;19.63;;
10166;SDS011;62970;53.130;8.244;2022-12-04T11:40:00;29.27;;;19.47;;
10166;SDS011;62970;53.130;8.244;2022-12-04T11:42:34;29.53;;;21.33;;
10166;SDS011;62970;53.130;8.244;2022-12-04T11:45:17;28.87;;;19.77;;
10166;SDS011;62970;53.130;8.244;2022-12-04T11:47:54;33.73;;;21.87;;
10166;SDS011;62970;53.130;8.244;2022-12-04T11:50:28;30.30;;;21.30;;
10166;SDS011;62970;53.130;8.244;2022-12-04T11:53:10;33.17;;;22.70;;
10166;SDS011;62970;53.130;8.244;2022-12-04T11:55:49;30.77;;;20.97;;
10166;SDS011;62970;53.130;8.244;2022-12-04T11:58:44;37.57;;;23.37;;
10166;SDS011;62970;53.130;8.244;2022-12-04T12:01:39;28.77;;;20.17;;
10166;SDS011;62970;53.130;8.244;2022-12-04T12:04:23;26.27;;;19.10;;
10166;SDS011;62970;53.130;8.244;2022-12-04T12:07:37;30.07;;;19.87;;
10166;SDS011;62970;53.130;8.244;2022-12-04T12:10:15;29.90;;;21.00;;
10166;SDS011;62970;53.130;8.244;2022-12-04T12:12:52;34.37;;;22.93;;
10166;SDS011;62970;53.130;8.244;2022-12-04T12:15:34;33.00;;;23.13;;
10166;SDS011;62970;53.130;8.244;2022-12-04T12:18:14;32.83;;;22.27;;
10166;SDS011;62970;53.130;8.244;2022-12-04T12:21:15;32.37;;;22.63;;
10166;SDS011;62970;53.130;8.244;2022-12-04T12:24:04;33.43;;;23.03;;
10166;SDS011;62970;53.130;8.244;2022-12-04T12:26:52;33.97;;;23.40;;
10166;SDS011;62970;53.130;8.244;2022-12-04T12:29:33;32.90;;;22.90;;
10166;SDS011;62970;53.130;8.244;2022-12-04T12:32:27;35.50;;;22.43;;
10166;SDS011;62970;53.130;8.244;2022-12-04T12:35:18;31.37;;;22.13;;
10166;SDS011;62970;53.130;8.244;2022-12-04T12:37:55;29.60;;;20.77;;
10166;SDS011;62970;53.130;8.244;2022-12-04T12:40:31;32.80;;;22.33;;
10166;SDS011;62970;53.130;8.244;2022-12-04T12:43:06;28.23;;;19.63;;
10166;SDS011;62970;53.130;8.244;2022-12-04T12:45:42;29.70;;;20.50;;
10166;SDS011;62970;53.130;8.244;2022-12-04T12:48:24;29.30;;;20.93;;
10166;SDS011;62970;53.130;8.244;2022-12-04T12:50:58;30.77;;;20.93;;
10166;SDS011;62970;53.130;8.244;2022-12-04T12:53:37;31.27;;;20.53;;
10166;SDS011;62970;53.130;8.244;2022-12-04T12:56:12;28.37;;;19.67;;
10166;SDS011;62970;53.130;8.244;2022-12-04T12:58:44;29.47;;;20.40;;
10166;SDS011;62970;53.130;8.244;2022-12-04T13:01:19;28.90;;;19.23;;
10166;SDS011;62970;53.130;8.244;2022-12-04T13:03:57;25.27;;;18.03;;
10166;SDS011;62970;53.130;8.244;2022-12-04T13:06:38;26.40;;;18.07;;
10166;SDS011;62970;53.130;8.244;2022-12-04T13:09:15;27.53;;;18.90;;
10166;SDS011;62970;53.130;8.244;2022-12-04T13:11:50;27.03;;;18.47;;
10166;SDS011;62970;53.130;8.244;2022-12-04T13:14:26;24.70;;;17.50;;
10166;SDS011;62970;53.130;8.244;2022-12-04T13:16:57;27.90;;;18.07;;
10166;SDS011;62970;53.130;8.244;2022-12-04T13:19:31;25.77;;;18.53;;
10166;SDS011;62970;53.130;8.244;2022-12-04T13:22:10;24.93;;;18.20;;
10166;SDS011;62970;53.130;8.244;2022-12-04T13:25:16;29.00;;;18.77;;
10166;SDS011;62970;53.130;8.244;2022-12-04T13:28:05;26.53;;;18.80;;
10166;SDS011;62970;53.130;8.244;2022-12-04T13:30:51;26.93;;;19.03;;
10166;SDS011;62970;53.130;8.244;2022-12-04T13:36:56;26.43;;;18.93;;
10166;SDS011;62970;53.130;8.244;2022-12-04T13:39:58;28.07;;;18.50;;
10166;SDS011;62970;53.130;8.244;2022-12-04T13:43:18;27.97;;;19.43;;
10166;SDS011;62970;53.130;8.244;2022-12-04T13:46:21;27.77;;;19.37;;
10166;SDS011;62970;53.130;8.244;2022-12-04T13:49:09;31.47;;;21.13;;
10166;SDS011;62970;53.130;8.244;2022-12-04T13:51:53;31.83;;;21.47;;
10166;SDS011;62970;53.130;8.244;2022-12-04T13:54:27;34.23;;;20.53;;
10166;SDS011;62970;53.130;8.244;2022-12-04T13:57:16;30.27;;;20.57;;
10166;SDS011;62970;53.130;8.244;2022-12-04T13:59:59;27.67;;;20.20;;
10166;SDS011;62970;53.130;8.244;2022-12-04T14:02:33;32.83;;;22.87;;
10166;SDS011;62970;53.130;8.244;2022-12-04T14:05:05;35.90;;;24.40;;
10166;SDS011;62970;53.130;8.244;2022-12-04T14:07:41;33.50;;;23.63;;
10166;SDS011;62970;53.130;8.244;2022-12-04T14:10:26;32.57;;;22.23;;
10166;SDS011;62970;53.130;8.244;2022-12-04T14:12:59;31.57;;;21.70;;
10166;SDS011;62970;53.130;8.244;2022-12-04T14:15:35;31.47;;;21.43;;
10166;SDS011;62970;53.130;8.244;2022-12-04T14:18:14;33.10;;;22.13;;
10166;SDS011;62970;53.130;8.244;2022-12-04T14:20:58;35.57;;;24.07;;
10166;SDS011;62970;53.130;8.244;2022-12-04T14:23:34;30.23;;;21.90;;
10166;SDS011;62970;53.130;8.244;2022-12-04T14:26:17;32.00;;;21.50;;
10166;SDS011;62970;53.130;8.244;2022-12-04T14:28:52;29.80;;;21.20;;
10166;SDS011;62970;53.130;8.244;2022-12-04T14:31:37;31.37;;;21.20;;
10166;SDS011;62970;53.130;8.244;2022-12-04T14:34:13;31.47;;;20.70;;
10166;SDS011;62970;53.130;8.244;2022-12-04T14:36:51;37.23;;;23.83;;
10166;SDS011;62970;53.130;8.244;2022-12-04T14:39:24;30.13;;;20.97;;
10166;SDS011;62970;53.130;8.244;2022-12-04T14:42:03;29.73;;;20.90;;
10166;SDS011;62970;53.130;8.244;2022-12-04T14:44:39;29.17;;;20.23;;
10166;SDS011;62970;53.130;8.244;2022-12-04T14:47:23;29.70;;;21.10;;
10166;SDS011;62970;53.130;8.244;2022-12-04T14:50:09;31.73;;;20.13;;
10166;SDS011;62970;53.130;8.244;2022-12-04T14:52:53;27.67;;;19.00;;
10166;SDS011;62970;53.130;8.244;2022-12-04T14:55:31;29.03;;;20.40;;
10166;SDS011;62970;53.130;8.244;2022-12-04T14:58:15;29.00;;;20.30;;
10166;SDS011;62970;53.130;8.244;2022-12-04T15:01:00;28.33;;;19.77;;
10166;SDS011;62970;53.130;8.244;2022-12-04T15:03:35;28.83;;;20.20;;
10166;SDS011;62970;53.130;8.244;2022-12-04T15:06:12;27.60;;;19.33;;
10166;SDS011;62970;53.130;8.244;2022-12-04T15:08:49;29.43;;;20.80;;
10166;SDS011;62970;53.130;8.244;2022-12-04T15:11:44;27.90;;;20.00;;
10166;SDS011;62970;53.130;8.244;2022-12-04T15:14:38;29.30;;;20.37;;